Time;durP1;ratioP1;P1;durP2;ratioP2;P2;SDS_P1;SDS_P2;PMS_P1;PMS_P2;Temp;Humidity;BMP_temperature;BMP_pressure;BME280_temperature;BME280_humidity;BME280_pressure;Samples;Min_cycle;Max_cycle;Signal;HPM_P1;HPM_P2
2023/01/24 00:02:07;;;;;;;116.80;111.80;;;8.20;97.20;;;;;;5031142;28;20271;-79
2023/01/24 00:04:33;;;;;;;116.35;111.35;;;8.20;97.20;;;;;;5048583;28;20029;-79
2023/01/24 00:06:58;;;;;;;120.45;115.38;;;8.20;97.20;;;;;;5048446;28;20381;-79
2023/01/24 00:09:24;;;;;;;120.55;115.47;;;8.30;97.20;;;;;;5048575;28;20037;-79
2023/01/24 00:11:50;;;;;;;121.40;116.22;;;8.30;97.20;;;;;;5030598;28;20089;-79
2023/01/24 00:14:16;;;;;;;121.10;116.00;;;8.30;97.20;;;;;;5048549;28;20112;-79
2023/01/24 00:16:41;;;;;;;123.18;117.97;;;8.30;97.20;;;;;;5047038;28;20511;-78
2023/01/24 00:19:07;;;;;;;122.03;116.88;;;8.30;97.20;;;;;;5047046;28;20083;-78
2023/01/24 00:21:33;;;;;;;121.50;116.40;;;8.40;97.20;;;;;;5046666;28;20036;-78
2023/01/24 00:23:58;;;;;;;120.68;115.57;;;8.40;97.20;;;;;;5046975;28;20029;-78
2023/01/24 00:26:25;;;;;;;122.97;117.78;;;8.40;97.20;;;;;;5048152;28;20513;-79
2023/01/24 00:28:51;;;;;;;123.20;118.00;;;8.50;97.30;;;;;;5048168;28;20029;-79
2023/01/24 00:31:17;;;;;;;123.90;118.65;;;8.50;97.30;;;;;;5048396;28;20448;-79
2023/01/24 00:33:42;;;;;;;124.55;119.25;;;8.50;97.30;;;;;;5047160;28;20120;-79
2023/01/24 00:36:09;;;;;;;123.63;118.43;;;8.60;97.30;;;;;;5047254;28;20044;-79
2023/01/24 00:38:34;;;;;;;;;;;8.60;97.30;;;;;;5047320;28;20025;-78
2023/01/24 00:41:00;;;;;;;121.43;116.25;;;8.70;97.30;;;;;;5046982;28;19915;-79
2023/01/24 00:43:26;;;;;;;122.22;117.03;;;8.80;97.30;;;;;;5046869;28;20037;-79
2023/01/24 00:45:52;;;;;;;125.00;119.70;;;8.80;97.30;;;;;;5048017;28;20063;-79
2023/01/24 00:48:18;;;;;;;124.68;119.38;;;8.90;97.30;;;;;;5047974;28;20044;-79
2023/01/24 00:50:44;;;;;;;124.03;118.78;;;9.00;97.30;;;;;;5030325;28;20486;-79
2023/01/24 00:53:09;;;;;;;129.27;123.82;;;9.00;97.30;;;;;;5047914;28;20029;-79
2023/01/24 00:55:44;;;;;;;125.25;119.95;;;9.10;97.30;;;;;;5048177;28;20033;-78
2023/01/24 00:58:10;;;;;;;127.25;121.93;;;9.10;97.30;;;;;;5047957;28;20134;-78
2023/01/24 01:00:38;;;;;;;125.38;120.10;;;9.10;97.20;;;;;;5052142;28;20488;-79
2023/01/24 01:03:05;;;;;;;124.38;119.10;;;9.20;97.20;;;;;;5050846;28;20104;-78
2023/01/24 01:05:31;;;;;;;123.85;118.65;;;9.20;97.20;;;;;;5050837;28;20083;-78
2023/01/24 01:07:56;;;;;;;121.88;116.78;;;9.20;97.20;;;;;;5050650;28;20481;-79
2023/01/24 01:10:22;;;;;;;123.97;118.75;;;9.10;97.20;;;;;;5050636;28;20037;-78
2023/01/24 01:12:48;;;;;;;122.93;117.72;;;9.10;97.20;;;;;;5051892;28;20047;-78
2023/01/24 01:15:13;;;;;;;122.20;117.00;;;9.10;97.30;;;;;;5033909;28;20112;-79
2023/01/24 01:17:39;;;;;;;123.82;118.55;;;9.10;97.30;;;;;;5034152;28;20102;-78
2023/01/24 01:20:05;;;;;;;124.28;118.97;;;9.10;97.30;;;;;;5034112;28;20392;-78
2023/01/24 01:22:31;;;;;;;125.13;119.82;;;9.10;97.30;;;;;;5051723;28;20028;-79
2023/01/24 01:24:57;;;;;;;125.93;120.57;;;9.10;97.30;;;;;;5051315;28;20029;-78
2023/01/24 01:27:22;;;;;;;125.10;119.80;;;9.20;97.30;;;;;;5051624;28;20029;-78
2023/01/24 01:29:48;;;;;;;125.85;120.55;;;9.20;97.30;;;;;;5034262;28;20036;-79
2023/01/24 01:32:14;;;;;;;128.23;122.80;;;9.20;97.30;;;;;;5034013;28;20025;-79
2023/01/24 01:34:39;;;;;;;126.78;121.38;;;9.20;97.30;;;;;;5050682;28;20025;-79
2023/01/24 01:37:05;;;;;;;126.57;121.18;;;9.20;97.30;;;;;;5050746;28;20500;-79
2023/01/24 01:39:31;;;;;;;126.75;121.38;;;9.30;97.30;;;;;;5034130;28;20036;-79
2023/01/24 01:41:56;;;;;;;130.25;124.75;;;9.20;97.30;;;;;;5051752;28;20044;-79
2023/01/24 01:44:38;;;;;;;130.30;124.80;;;9.20;97.30;;;;;;5050115;28;20398;-78
2023/01/24 01:47:17;;;;;;;131.85;126.28;;;9.20;97.40;;;;;;5049937;28;20091;-79
2023/01/24 01:49:50;;;;;;;129.75;124.28;;;9.20;97.40;;;;;;5051372;28;20021;-79
2023/01/24 01:52:17;;;;;;;125.85;120.55;;;9.30;97.40;;;;;;5049941;28;20108;-79
2023/01/24 01:54:45;;;;;;;128.05;122.65;;;9.20;97.40;;;;;;5049803;28;20071;-78
2023/01/24 01:57:20;;;;;;;130.70;125.20;;;9.20;97.40;;;;;;5049890;28;20021;-79
2023/01/24 01:59:58;;;;;;;124.35;119.05;;;9.20;97.40;;;;;;5050912;28;20045;-79
2023/01/24 02:02:25;;;;;;;124.50;119.20;;;9.20;97.40;;;;;;5051057;28;20022;-78
2023/01/24 02:04:58;;;;;;;126.22;120.82;;;9.20;97.40;;;;;;5033277;28;20072;-78
2023/01/24 02:07:38;;;;;;;123.15;117.93;;;9.20;97.40;;;;;;5051341;28;20484;-78
2023/01/24 02:10:05;;;;;;;124.88;119.57;;;9.20;97.40;;;;;;5050821;28;20021;-78
2023/01/24 02:12:44;;;;;;;122.80;117.60;;;9.20;97.40;;;;;;5050672;28;20432;-79
2023/01/24 02:18:07;;;;;;;127.05;121.65;;;9.20;97.50;;;;;;5050919;28;20032;-79
2023/01/24 02:20:42;;;;;;;125.50;120.20;;;9.20;97.50;;;;;;5050673;28;20409;-79
2023/01/24 02:23:14;;;;;;;126.78;121.38;;;9.20;97.50;;;;;;5050652;28;20021;-78
2023/01/24 02:26:01;;;;;;;127.22;121.82;;;9.20;97.50;;;;;;5050896;28;20079;-78
2023/01/24 02:28:27;;;;;;;127.07;121.75;;;9.20;97.50;;;;;;5049764;28;20036;-78
2023/01/24 02:30:56;;;;;;;127.78;122.38;;;9.20;97.60;;;;;;5049778;28;20033;-79
2023/01/24 02:33:22;;;;;;;130.07;124.57;;;9.30;97.60;;;;;;5048726;28;20021;-79
2023/01/24 02:35:48;;;;;;;130.73;125.22;;;9.30;97.60;;;;;;5049232;28;20033;-79
2023/01/24 02:38:26;;;;;;;131.38;125.85;;;9.40;97.60;;;;;;5032097;28;20041;-79
2023/01/24 02:40:55;;;;;;;133.73;128.13;;;9.50;97.70;;;;;;5048993;28;20033;-79
2023/01/24 02:43:25;;;;;;;125.05;119.80;;;9.60;97.70;;;;;;5049985;28;20021;-79
2023/01/24 02:45:51;;;;;;;128.27;122.88;;;9.70;97.70;;;;;;5049827;28;20051;-79
2023/01/24 02:48:17;;;;;;;131.13;125.63;;;9.70;97.60;;;;;;5050118;28;20029;-79
2023/01/24 02:53:29;;;;;;;129.88;124.50;;;9.90;97.60;;;;;;5049884;28;20508;-79
2023/01/24 02:58:41;;;;;;;126.57;121.38;;;10.00;97.60;;;;;;5048642;28;20040;-78
2023/01/24 03:01:06;;;;;;;126.53;121.28;;;10.10;97.60;;;;;;5050424;28;20389;-78
2023/01/24 03:03:32;;;;;;;125.78;120.57;;;10.10;97.60;;;;;;5032633;28;20477;-78
2023/01/24 03:05:58;;;;;;;120.80;115.85;;;10.10;97.60;;;;;;5048777;28;20032;-78
2023/01/24 03:08:32;;;;;;;122.10;117.10;;;10.20;97.60;;;;;;5048592;28;20029;-79
2023/01/24 03:10:58;;;;;;;121.47;116.50;;;10.20;97.60;;;;;;5050015;28;20024;-79
2023/01/24 03:35:22;;;;;;;114.53;109.85;;;10.40;97.60;;;;;;5050301;28;20031;-79
2023/01/24 03:40:32;;;;;;;118.03;113.22;;;10.40;97.60;;;;;;5049982;28;20111;-79
2023/01/24 03:43:01;;;;;;;117.22;112.47;;;10.50;97.60;;;;;;5049308;28;20465;-79
2023/01/24 03:45:33;;;;;;;120.57;115.68;;;10.40;97.60;;;;;;5048230;28;20033;-79
2023/01/24 03:48:01;;;;;;;119.00;114.18;;;10.40;97.60;;;;;;5049193;28;20086;-79
2023/01/24 03:53:21;;;;;;;120.60;115.70;;;10.40;97.60;;;;;;5048212;28;20094;-79
2023/01/24 03:55:55;;;;;;;120.28;115.38;;;10.40;97.60;;;;;;5048177;28;20128;-78
2023/01/24 03:58:22;;;;;;;117.25;112.45;;;10.40;97.60;;;;;;5049604;28;20458;-79
2023/01/24 04:00:48;;;;;;;121.40;116.45;;;10.40;97.60;;;;;;5049159;28;20076;-79
2023/01/24 04:03:13;;;;;;;122.93;117.93;;;10.40;97.60;;;;;;5048897;28;20487;-78
2023/01/24 04:05:39;;;;;;;120.38;115.47;;;10.40;97.60;;;;;;5047323;28;20060;-78
2023/01/24 04:08:05;;;;;;;121.63;116.65;;;10.50;97.60;;;;;;5047660;28;20117;-79
2023/01/24 04:10:31;;;;;;;;;;;10.40;97.60;;;;;;5049226;28;20123;-78
2023/01/24 04:12:57;;;;;;;121.38;116.47;;;10.40;97.70;;;;;;5048880;28;20356;-79
2023/01/24 04:15:28;;;;;;;122.32;117.35;;;10.50;97.60;;;;;;5048026;28;20048;-79
2023/01/24 04:17:56;;;;;;;123.05;118.05;;;10.40;97.60;;;;;;5048007;28;20501;-79
2023/01/24 04:20:22;;;;;;;122.63;117.63;;;10.40;97.60;;;;;;5047043;28;20036;-79
2023/01/24 04:22:48;;;;;;;124.90;119.80;;;10.40;97.60;;;;;;5047101;28;20028;-79
2023/01/24 04:25:14;;;;;;;125.80;120.70;;;10.40;97.60;;;;;;5030725;28;20033;-79
2023/01/24 04:27:41;;;;;;;127.22;122.03;;;10.40;97.60;;;;;;5048957;28;20036;-79
2023/01/24 04:30:10;;;;;;;131.98;126.60;;;10.40;97.60;;;;;;5047464;28;20032;-78
2023/01/24 04:32:36;;;;;;;130.02;124.75;;;10.30;97.60;;;;;;5047429;28;20028;-79
2023/01/24 04:35:05;;;;;;;130.65;125.35;;;10.30;97.60;;;;;;5031323;28;20031;-79
2023/01/24 04:37:31;;;;;;;130.45;125.10;;;10.30;97.60;;;;;;5047060;28;20028;-79
2023/01/24 04:39:57;;;;;;;136.45;130.85;;;10.20;97.60;;;;;;5047409;28;20478;-79
2023/01/24 04:42:23;;;;;;;135.45;129.85;;;10.10;97.60;;;;;;5047131;28;20039;-78
2023/01/24 04:44:49;;;;;;;132.45;126.95;;;10.00;97.60;;;;;;5048911;28;20029;-78
2023/01/24 04:47:15;;;;;;;139.07;133.38;;;10.00;97.60;;;;;;5047573;28;20402;-78
2023/01/24 04:49:41;;;;;;;135.27;129.68;;;9.90;97.60;;;;;;5047151;28;20038;-78
2023/01/24 04:52:13;;;;;;;136.60;130.95;;;9.90;97.60;;;;;;5046725;28;20040;-79
2023/01/24 04:54:41;;;;;;;141.43;135.55;;;9.90;97.60;;;;;;5048112;28;20473;-79
2023/01/24 04:57:10;;;;;;;138.68;132.90;;;9.80;97.60;;;;;;5048283;28;20040;-79
2023/01/24 04:59:36;;;;;;;134.98;129.38;;;9.80;97.60;;;;;;5047247;28;20128;-78
2023/01/24 05:02:01;;;;;;;137.82;132.13;;;9.70;97.70;;;;;;5047517;28;20055;-78
2023/01/24 05:04:27;;;;;;;141.82;135.93;;;9.70;97.60;;;;;;5048345;28;20029;-78
2023/01/24 05:06:53;;;;;;;137.85;132.15;;;9.70;97.60;;;;;;5030396;28;20063;-78
2023/01/24 05:09:19;;;;;;;141.73;135.82;;;9.70;97.60;;;;;;5047566;28;20393;-78
2023/01/24 05:11:47;;;;;;;141.00;135.13;;;9.60;97.60;;;;;;5048831;28;20044;-78
2023/01/24 05:14:13;;;;;;;138.68;132.88;;;9.60;97.60;;;;;;5048896;28;20060;-78
2023/01/24 05:16:39;;;;;;;143.27;137.27;;;9.50;97.50;;;;;;5030992;28;20506;-79
2023/01/24 05:19:05;;;;;;;143.70;137.70;;;9.50;97.50;;;;;;5048436;28;20036;-78
2023/01/24 05:21:31;;;;;;;140.05;134.18;;;9.40;97.50;;;;;;5047667;28;20029;-78
2023/01/24 05:23:57;;;;;;;144.13;138.07;;;9.40;97.50;;;;;;5048657;28;20120;-78
2023/01/24 05:26:25;;;;;;;142.98;136.95;;;9.30;97.50;;;;;;5047189;28;20541;-78
2023/01/24 05:28:52;;;;;;;137.20;131.40;;;9.30;97.50;;;;;;5048532;28;20033;-78
2023/01/24 05:31:18;;;;;;;140.77;134.77;;;9.20;97.50;;;;;;5047413;28;20033;-78
2023/01/24 05:33:44;;;;;;;141.23;135.23;;;9.10;97.50;;;;;;5048857;28;20059;-78
2023/01/24 05:36:18;;;;;;;141.57;135.57;;;9.10;97.60;;;;;;5048618;28;20111;-78
2023/01/24 05:38:45;;;;;;;142.75;136.68;;;9.10;97.60;;;;;;5047074;28;20116;-79
2023/01/24 05:41:15;;;;;;;138.77;132.88;;;9.00;97.60;;;;;;5047257;28;20025;-79
2023/01/24 05:43:41;;;;;;;145.32;139.13;;;9.00;97.60;;;;;;5048522;28;20029;-78
2023/01/24 05:46:11;;;;;;;139.98;133.98;;;9.00;97.60;;;;;;5049405;28;20393;-78
2023/01/24 05:48:37;;;;;;;142.32;136.23;;;9.00;97.60;;;;;;5050388;28;20036;-77
2023/01/24 05:51:08;;;;;;;140.43;134.43;;;8.90;97.60;;;;;;5050285;28;20473;-79
2023/01/24 05:53:36;;;;;;;138.70;132.80;;;8.90;97.60;;;;;;5033823;28;20441;-79
2023/01/24 05:56:05;;;;;;;139.10;133.10;;;8.90;97.60;;;;;;5052013;28;20021;-78
2023/01/24 05:58:36;;;;;;;139.20;133.20;;;8.80;97.60;;;;;;5050037;28;20508;-78
2023/01/24 06:01:09;;;;;;;137.05;131.20;;;8.80;97.60;;;;;;5050686;28;20513;-78
2023/01/24 06:03:38;;;;;;;136.85;130.98;;;8.80;97.60;;;;;;5051810;28;20029;-78
2023/01/24 06:06:04;;;;;;;136.48;130.60;;;8.80;97.60;;;;;;5051743;28;20095;-78
2023/01/24 06:08:30;;;;;;;133.60;127.80;;;8.80;97.60;;;;;;5051771;28;20477;-78
2023/01/24 06:11:03;;;;;;;138.63;132.68;;;8.80;97.60;;;;;;5033329;28;20043;-79
2023/01/24 06:13:29;;;;;;;132.63;126.93;;;8.70;97.60;;;;;;5049823;28;20035;-78
2023/01/24 06:16:05;;;;;;;;;;;8.70;97.60;;;;;;5052489;28;20056;-78
2023/01/24 06:18:32;;;;;;;134.25;128.48;;;8.70;97.60;;;;;;5050009;28;19917;-78
2023/01/24 06:20:58;;;;;;;;;;;8.70;97.50;;;;;;5050709;28;20033;-78
2023/01/24 06:23:26;;;;;;;135.32;129.52;;;8.70;97.50;;;;;;5051549;28;19911;-78
2023/01/24 06:25:53;;;;;;;133.60;127.90;;;8.60;97.40;;;;;;5051502;28;20032;-79
2023/01/24 06:28:19;;;;;;;133.13;127.43;;;8.60;97.50;;;;;;5051364;28;20039;-78
2023/01/24 06:30:49;;;;;;;;;;;8.60;97.50;;;;;;5033675;28;20031;-78
2023/01/24 06:33:48;;;;;;;130.15;124.55;;;8.60;97.50;;;;;;5049841;28;20354;-78
2023/01/24 06:36:26;;;;;;;132.70;127.00;;;8.60;97.50;;;;;;5051112;28;20397;-78
2023/01/24 06:38:52;;;;;;;130.82;125.22;;;8.60;97.50;;;;;;5051128;28;20105;-78
2023/01/24 06:41:18;;;;;;;130.48;124.88;;;8.60;97.50;;;;;;5033426;28;20083;-79
2023/01/24 06:43:44;;;;;;;131.13;125.53;;;8.60;97.50;;;;;;5049736;28;20589;-79
2023/01/24 06:46:12;;;;;;;129.40;123.90;;;8.60;97.50;;;;;;5049531;28;20033;-78
2023/01/24 06:48:38;;;;;;;131.27;125.68;;;8.60;97.50;;;;;;5049796;28;20474;-78
2023/01/24 06:51:04;;;;;;;130.20;124.60;;;8.50;97.50;;;;;;5049608;28;20036;-78
2023/01/24 06:53:32;;;;;;;130.45;124.85;;;8.60;97.50;;;;;;5050835;28;20044;-78
2023/01/24 06:55:59;;;;;;;128.77;123.25;;;8.60;97.50;;;;;;5049808;28;20029;-78
2023/01/24 06:58:24;;;;;;;;;;;8.60;97.40;;;;;;5050321;28;20037;-78
2023/01/24 07:00:53;;;;;;;123.85;118.55;;;8.50;97.40;;;;;;5049118;28;19927;-77
2023/01/24 07:03:18;;;;;;;126.22;120.78;;;8.50;97.40;;;;;;5048868;28;20025;-78
2023/01/24 07:05:45;;;;;;;128.15;122.65;;;8.60;97.50;;;;;;5032944;28;20539;-78
2023/01/24 07:08:11;;;;;;;;;;;8.60;97.50;;;;;;5049515;28;20339;-78
2023/01/24 07:10:38;;;;;;;124.05;118.75;;;8.70;97.60;;;;;;5050159;28;19916;-79
2023/01/24 07:13:04;;;;;;;122.20;117.00;;;8.80;97.50;;;;;;5049896;28;20025;-78
2023/01/24 07:15:30;;;;;;;120.57;115.47;;;8.90;97.50;;;;;;5049685;28;20029;-78
2023/01/24 07:17:56;;;;;;;120.57;115.47;;;8.90;97.40;;;;;;5048598;28;20033;-78
2023/01/24 07:20:22;;;;;;;119.95;114.85;;;9.00;97.40;;;;;;5050053;28;20028;-78
2023/01/24 07:22:48;;;;;;;120.95;115.85;;;9.00;97.40;;;;;;5050321;28;20389;-78
2023/01/24 07:25:18;;;;;;;121.03;115.93;;;9.00;97.40;;;;;;5031641;28;20099;-79
2023/01/24 07:27:44;;;;;;;122.18;117.03;;;9.00;97.40;;;;;;5049854;28;20017;-79
2023/01/24 07:30:12;;;;;;;120.40;115.30;;;9.00;97.40;;;;;;5047414;28;20021;-76
2023/01/24 07:32:38;;;;;;;119.50;114.50;;;9.00;97.40;;;;;;5048653;28;20037;-76
2023/01/24 07:35:04;;;;;;;;;;;9.10;97.40;;;;;;5048887;28;20025;-76
2023/01/24 07:37:30;;;;;;;118.45;113.50;;;9.10;97.50;;;;;;5047000;28;19909;-76
2023/01/24 07:39:56;;;;;;;118.65;113.68;;;9.10;97.40;;;;;;5048286;28;20036;-77
2023/01/24 07:42:22;;;;;;;120.15;115.10;;;9.10;97.40;;;;;;5047279;28;20033;-76
2023/01/24 07:44:48;;;;;;;118.32;113.40;;;9.10;97.40;;;;;;5048149;28;20024;-76
2023/01/24 07:47:13;;;;;;;120.63;115.55;;;9.20;97.50;;;;;;5048362;28;20087;-76
2023/01/24 07:49:39;;;;;;;124.15;119.00;;;9.20;97.50;;;;;;5050926;28;20025;-76
2023/01/24 07:52:05;;;;;;;120.75;115.75;;;9.20;97.50;;;;;;5031043;28;20037;-76
2023/01/24 07:54:30;;;;;;;123.13;118.03;;;9.30;97.40;;;;;;5046762;28;20079;-76
2023/01/24 07:56:56;;;;;;;130.90;125.50;;;9.20;97.30;;;;;;5030047;28;20055;-76
2023/01/24 07:59:22;;;;;;;128.98;123.68;;;9.20;97.50;;;;;;5046175;28;20494;-76
2023/01/24 08:01:48;;;;;;;131.38;125.90;;;9.20;97.40;;;;;;5046615;28;20345;-76
2023/01/24 08:04:13;;;;;;;133.88;128.27;;;9.10;97.30;;;;;;5045259;28;20033;-77
2023/01/24 08:07:16;;;;;;;132.40;126.90;;;9.10;97.40;;;;;;5046048;28;20056;-76
2023/01/24 08:09:28;;;;;;;134.40;128.80;;;9.10;97.40;;;;;;5046388;28;20090;-76
2023/01/24 08:11:54;;;;;;;;;;;9.10;97.40;;;;;;5045770;28;20056;-76
2023/01/24 08:14:21;;;;;;;132.77;127.28;;;9.10;97.40;;;;;;5045451;28;19947;-76
2023/01/24 08:16:48;;;;;;;136.25;130.55;;;9.10;97.40;;;;;;5047385;28;20033;-76
2023/01/24 08:19:13;;;;;;;134.23;128.60;;;9.10;97.40;;;;;;5047508;28;20111;-76
2023/01/24 08:21:39;;;;;;;135.05;129.38;;;9.10;97.40;;;;;;5047279;28;20552;-77
2023/01/24 08:24:05;;;;;;;135.98;130.27;;;9.10;97.50;;;;;;5047299;28;20035;-76
2023/01/24 08:26:31;;;;;;;137.80;132.00;;;9.10;97.50;;;;;;5047395;28;20024;-76
2023/01/24 08:28:57;;;;;;;134.02;128.43;;;9.20;97.50;;;;;;5045893;28;20448;-76
2023/01/24 08:31:22;;;;;;;134.32;128.68;;;9.20;97.60;;;;;;5045903;28;20029;-77
2023/01/24 08:33:48;;;;;;;140.35;134.45;;;9.30;97.60;;;;;;5012597;28;20408;-76
2023/01/24 08:36:14;;;;;;;137.57;131.80;;;9.40;97.60;;;;;;5047148;28;20063;-77
2023/01/24 08:38:39;;;;;;;135.98;130.25;;;9.50;97.60;;;;;;5045597;28;20396;-75
2023/01/24 08:41:07;;;;;;;137.50;131.70;;;9.50;97.60;;;;;;5046461;28;20040;-76
2023/01/24 08:43:32;;;;;;;133.27;127.68;;;9.50;97.60;;;;;;5045879;28;20604;-76
2023/01/24 08:45:58;;;;;;;133.25;127.65;;;9.70;97.60;;;;;;5046823;28;20037;-77
2023/01/24 08:48:24;;;;;;;132.23;126.72;;;9.70;97.60;;;;;;5046968;28;20029;-76
2023/01/24 08:50:50;;;;;;;124.57;119.38;;;9.80;97.60;;;;;;5046699;28;20033;-76
2023/01/24 08:53:15;;;;;;;126.85;121.55;;;9.90;97.60;;;;;;5046310;28;20033;-77
2023/01/24 08:55:41;;;;;;;125.68;120.47;;;9.90;97.60;;;;;;5028612;28;20389;-76
2023/01/24 08:58:07;;;;;;;123.15;118.05;;;10.00;97.70;;;;;;5046172;28;20041;-77
2023/01/24 09:00:33;;;;;;;125.95;120.78;;;10.00;97.60;;;;;;5045114;28;20045;-77
2023/01/24 09:03:00;;;;;;;118.95;114.05;;;10.10;97.70;;;;;;5046691;28;20586;-77
2023/01/24 09:05:27;;;;;;;120.25;115.25;;;10.20;97.70;;;;;;5020386;28;20079;-77
2023/01/24 09:07:53;;;;;;;118.35;113.45;;;10.30;97.70;;;;;;5036133;28;20051;-76
2023/01/24 09:10:18;;;;;;;115.82;111.03;;;10.30;97.70;;;;;;5040634;28;20056;-77
2023/01/24 09:12:44;;;;;;;110.97;106.38;;;10.40;97.90;;;;;;5034724;28;20033;-76
2023/01/24 09:15:10;;;;;;;108.22;103.82;;;10.50;97.70;;;;;;5037333;28;20307;-76
2023/01/24 09:17:37;;;;;;;99.43;95.32;;;10.60;97.80;;;;;;5041426;28;20037;-76
2023/01/24 09:20:04;;;;;;;94.72;90.82;;;10.70;97.80;;;;;;5018305;28;20533;-76
2023/01/24 09:22:30;;;;;;;78.07;74.88;;;10.70;97.90;;;;;;5042006;28;20021;-75
2023/01/24 09:24:56;;;;;;;57.20;54.90;;;11.00;98.30;;;;;;5043095;28;20021;-76
2023/01/24 09:27:21;;;;;;;43.72;42.03;;;11.70;99.10;;;;;;5046455;28;20025;-76
2023/01/24 09:29:47;;;;;;;34.13;32.83;;;12.60;99.40;;;;;;5040185;28;20033;-75
2023/01/24 09:32:13;;;;;;;27.95;26.85;;;13.40;99.20;;;;;;5040207;28;20105;-75
2023/01/24 09:34:46;;;;;;;24.05;23.08;;;14.20;99.10;;;;;;5041273;28;20044;-75
2023/01/24 09:37:15;;;;;;;19.98;19.17;;;15.00;98.80;;;;;;5028795;28;20047;-76
2023/01/24 09:39:41;;;;;;;15.55;14.85;;;15.60;98.60;;;;;;5039666;28;20025;-75
2023/01/24 09:42:18;;;;;;;12.90;12.30;;;16.10;98.40;;;;;;5039398;28;20032;-77
2023/01/24 09:44:59;;;;;;;13.25;12.65;;;16.50;98.10;;;;;;5042305;28;20021;-75
2023/01/24 09:47:41;;;;;;;11.98;11.48;;;16.50;97.70;;;;;;5039857;28;20025;-75
2023/01/24 09:50:18;;;;;;;10.35;9.85;;;16.50;97.90;;;;;;5038066;28;20389;-76
2023/01/24 09:52:46;;;;;;;8.98;8.57;;;16.60;98.00;;;;;;5042895;28;20382;-75
2023/01/24 09:55:22;;;;;;;8.20;7.80;;;16.70;98.10;;;;;;5035796;28;20026;-76
2023/01/24 09:58:04;;;;;;;6.28;5.93;;;17.00;98.30;;;;;;5041771;28;20009;-76
2023/01/24 10:00:39;;;;;;;5.05;4.75;;;17.20;98.30;;;;;;5039647;28;20039;-74
2023/01/24 10:03:17;;;;;;;3.80;3.50;;;17.60;98.50;;;;;;5023225;28;20045;-75
2023/01/24 10:05:48;;;;;;;2.80;2.60;;;17.90;98.40;;;;;;5039922;28;20092;-76
2023/01/24 10:08:31;;;;;;;2.55;2.35;;;18.20;98.40;;;;;;5038948;28;20024;-75
2023/01/24 10:11:21;;;;;;;1.70;1.60;;;18.40;98.30;;;;;;5034526;28;20022;-74
2023/01/24 10:13:50;;;;;;;2.00;1.90;;;18.60;98.10;;;;;;5044794;28;20408;-75
2023/01/24 10:16:42;;;;;;;1.35;1.25;;;18.70;98.00;;;;;;5048003;28;20029;-75
2023/01/24 10:19:45;;;;;;;0.90;0.90;;;18.90;98.40;;;;;;5038607;28;20033;-75
2023/01/24 10:22:54;;;;;;;0.73;0.73;;;19.00;98.20;;;;;;5044662;28;20075;-74
2023/01/24 10:25:40;;;;;;;0.63;0.63;;;19.10;98.10;;;;;;5033480;28;20021;-75
2023/01/24 10:28:18;;;;;;;0.70;0.70;;;19.20;98.30;;;;;;5041826;28;20115;-75
2023/01/24 10:31:03;;;;;;;0.30;0.30;;;19.40;98.30;;;;;;5047589;28;20017;-75
2023/01/24 10:33:40;;;;;;;0.10;0.10;;;19.50;98.30;;;;;;5044540;28;20362;-75
2023/01/24 10:36:13;;;;;;;;;;;19.70;98.40;;;;;;5044695;28;20025;-75
2023/01/24 10:38:41;;;;;;;0.20;0.20;;;19.50;97.90;;;;;;5038553;28;19916;-74
2023/01/24 10:41:23;;;;;;;0.50;0.50;;;19.10;97.50;;;;;;5043127;28;20652;-74
2023/01/24 10:43:55;;;;;;;0.20;0.20;;;18.80;98.00;;;;;;5038409;28;20021;-75
2023/01/24 10:46:58;;;;;;;0.65;0.65;;;18.40;97.50;;;;;;5042826;28;20017;-74
2023/01/24 10:49:27;;;;;;;1.55;1.45;;;17.80;97.30;;;;;;5048542;28;20028;-75
2023/01/24 10:52:19;;;;;;;2.08;1.95;;;17.10;97.10;;;;;;5043780;28;20053;-76
2023/01/24 10:54:51;;;;;;;3.05;2.85;;;16.40;97.30;;;;;;5039840;28;20029;-75
2023/01/24 10:57:42;;;;;;;3.60;3.30;;;16.00;97.50;;;;;;5042658;28;20013;-76
2023/01/24 11:00:17;;;;;;;5.07;4.78;;;15.50;97.30;;;;;;5037043;28;20056;-76
2023/01/24 11:02:49;;;;;;;7.40;7.00;;;15.00;97.50;;;;;;5045015;28;20437;-78
2023/01/24 11:05:19;;;;;;;7.03;6.63;;;14.70;97.50;;;;;;5041946;28;20469;-69
2023/01/24 11:08:01;;;;;;;8.40;8.00;;;14.40;97.60;;;;;;5047624;28;20449;-77
2023/01/24 11:10:34;;;;;;;10.30;9.80;;;14.20;97.70;;;;;;5035085;28;20439;-77
2023/01/24 11:13:02;;;;;;;11.15;10.65;;;14.00;97.70;;;;;;5038450;28;20470;-78
2023/01/24 11:15:33;;;;;;;13.05;12.45;;;13.90;97.80;;;;;;5036986;28;20079;-77
2023/01/24 11:18:05;;;;;;;13.55;12.95;;;13.70;97.70;;;;;;5036759;28;20507;-75
2023/01/24 11:20:34;;;;;;;13.57;12.98;;;13.60;97.70;;;;;;5045047;28;20061;-74
2023/01/24 11:23:04;;;;;;;14.75;14.15;;;13.60;97.80;;;;;;5044618;28;20029;-76
2023/01/24 11:25:30;;;;;;;15.40;14.73;;;13.50;97.70;;;;;;5040649;28;20024;-77
2023/01/24 11:27:56;;;;;;;17.55;16.85;;;13.40;97.70;;;;;;5041143;28;20034;-77
2023/01/24 11:30:22;;;;;;;17.85;17.15;;;13.40;97.70;;;;;;5043345;28;20029;-74
2023/01/24 11:32:57;;;;;;;18.75;17.95;;;13.30;97.70;;;;;;5017287;28;20082;-76
2023/01/24 11:35:46;;;;;;;19.38;18.58;;;13.30;97.70;;;;;;5032245;28;20024;-76
2023/01/24 11:38:23;;;;;;;20.25;19.45;;;13.20;97.70;;;;;;5039848;28;20504;-76
2023/01/24 11:41:15;;;;;;;20.67;19.88;;;13.30;97.80;;;;;;5038313;28;20047;-74
2023/01/24 11:43:53;;;;;;;20.35;19.55;;;13.30;97.70;;;;;;5037732;28;20024;-76
2023/01/24 11:46:44;;;;;;;20.40;19.60;;;13.30;97.90;;;;;;5047750;28;20025;-74
2023/01/24 11:49:10;;;;;;;20.80;20.00;;;13.30;97.70;;;;;;5030609;28;20029;-75
2023/01/24 11:51:53;;;;;;;21.77;20.88;;;13.40;97.80;;;;;;5037281;28;20091;-75
2023/01/24 11:54:38;;;;;;;19.70;18.90;;;13.50;97.80;;;;;;5043438;28;20468;-73
2023/01/24 11:57:12;;;;;;;19.65;18.85;;;13.50;97.70;;;;;;5033824;28;20044;-75
2023/01/24 12:00:10;;;;;;;21.67;20.77;;;13.50;97.60;;;;;;5031814;28;20074;-75
2023/01/24 12:02:35;;;;;;;;;;;13.50;97.60;;;;;;5016113;28;20045;-76
2023/01/24 12:05:19;;;;;;;16.40;15.70;;;13.70;98.10;;;;;;5035435;28;19992;-76
2023/01/24 12:08:16;;;;;;;17.00;16.30;;;14.00;98.00;;;;;;5047890;28;20100;-76
2023/01/24 12:10:54;;;;;;;16.05;15.35;;;14.10;97.90;;;;;;5040134;28;20388;-76
2023/01/24 12:13:48;;;;;;;15.13;14.52;;;14.20;97.80;;;;;;5031769;28;20028;-76
2023/01/24 12:16:42;;;;;;;15.30;14.65;;;14.20;97.70;;;;;;5026342;28;20040;-76
2023/01/24 12:19:42;;;;;;;16.55;15.85;;;14.10;97.60;;;;;;5034378;28;20401;-77
2023/01/24 12:22:16;;;;;;;17.25;16.55;;;14.10;97.70;;;;;;5032187;28;20053;-75
2023/01/24 12:24:48;;;;;;;15.27;14.63;;;14.20;97.90;;;;;;5039655;28;20022;-77
2023/01/24 12:27:17;;;;;;;16.67;15.98;;;14.30;97.90;;;;;;5035440;28;20146;-77
2023/01/24 12:29:54;;;;;;;14.43;13.82;;;14.40;98.00;;;;;;5037698;28;20059;-76
2023/01/24 12:32:26;;;;;;;14.55;13.95;;;14.50;97.90;;;;;;5041423;28;20111;-76
2023/01/24 12:35:17;;;;;;;13.02;12.43;;;14.50;97.80;;;;;;5035390;28;20021;-76
2023/01/24 12:38:06;;;;;;;14.95;14.35;;;14.50;97.60;;;;;;5044632;28;20025;-75
2023/01/24 12:40:52;;;;;;;15.18;14.48;;;14.30;97.50;;;;;;5049201;28;20032;-75
2023/01/24 12:43:28;;;;;;;15.18;14.57;;;14.20;97.60;;;;;;5035491;28;20024;-76
2023/01/24 12:46:11;;;;;;;17.20;16.50;;;14.10;97.60;;;;;;5036413;28;20088;-78
2023/01/24 12:49:07;;;;;;;14.80;14.20;;;14.10;97.70;;;;;;5030603;28;20441;-75
2023/01/24 12:51:42;;;;;;;17.17;16.48;;;14.10;97.80;;;;;;5036587;28;20021;-76
2023/01/24 12:54:20;;;;;;;19.10;18.30;;;14.10;97.60;;;;;;5040620;28;20033;-76
2023/01/24 12:57:08;;;;;;;20.10;19.30;;;14.00;97.50;;;;;;5040056;28;20083;-75
2023/01/24 12:59:33;;;;;;;;;;;13.80;97.50;;;;;;5041474;28;20424;-78
2023/01/24 13:02:24;;;;;;;21.70;20.80;;;13.80;97.60;;;;;;5019367;28;19909;-81
2023/01/24 13:05:23;;;;;;;20.23;19.42;;;13.70;97.50;;;;;;5051792;28;20021;-75
2023/01/24 13:08:18;;;;;;;20.60;19.80;;;13.60;97.50;;;;;;5045258;28;20039;-77
2023/01/24 13:11:16;;;;;;;19.60;18.80;;;13.50;97.50;;;;;;5037405;28;20099;-77
2023/01/24 13:14:08;;;;;;;19.50;18.70;;;13.50;97.60;;;;;;5039809;28;20017;-76
2023/01/24 13:16:55;;;;;;;19.77;18.98;;;13.50;97.60;;;;;;5044512;28;20066;-75
2023/01/24 13:19:42;;;;;;;16.83;16.13;;;13.40;97.60;;;;;;5037619;28;20024;-76
2023/01/24 13:22:23;;;;;;;20.20;19.40;;;13.50;97.60;;;;;;5044810;28;20036;-76